createdAt,value
2018-03-25T08:30:33.687Z,60.00
2018-03-25T08:38:26.643Z,59.20
2018-03-25T08:40:53.722Z,57.30
2018-03-25T08:43:20.807Z,56.70
2018-03-25T08:45:48.319Z,55.70
2018-03-25T08:48:15.858Z,54.60
2018-03-25T08:50:43.469Z,54.30
2018-03-25T08:53:10.564Z,53.70
2018-03-25T08:55:38.878Z,51.30
2018-03-25T08:58:06.413Z,51.20
2018-03-25T09:00:33.909Z,51.50
2018-03-25T09:03:01.462Z,51.70
2018-03-25T09:05:28.988Z,49.30
2018-03-25T09:07:56.504Z,47.90
2018-03-25T09:10:23.976Z,49.60
2018-03-25T09:12:52.249Z,46.40
2018-03-25T09:15:20.526Z,47.00
2018-03-25T09:17:48.768Z,45.60
2018-03-25T09:20:16.246Z,45.60
2018-03-25T09:22:43.752Z,46.80
2018-03-25T09:25:11.206Z,46.70
2018-03-25T09:27:38.749Z,46.50
2018-03-25T09:30:07.374Z,43.80
2018-03-25T09:32:34.919Z,43.70
2018-03-25T09:35:02.432Z,45.00
2018-03-25T09:37:30.672Z,45.30
2018-03-25T09:39:58.144Z,44.70
2018-03-25T09:42:25.646Z,43.80
2018-03-25T09:44:53.162Z,42.40
2018-03-25T09:47:21.477Z,40.90
2018-03-25T09:49:49.001Z,41.00
2018-03-25T09:52:17.277Z,41.50
2018-03-25T09:54:45.596Z,41.20
2018-03-25T09:57:13.072Z,41.20
2018-03-25T09:59:40.615Z,39.60
2018-03-25T10:02:12.009Z,38.60
2018-03-25T10:04:39.511Z,39.50
2018-03-25T10:07:06.983Z,40.70
2018-03-25T10:09:34.547Z,37.30
2018-03-25T10:12:02.057Z,38.50
2018-03-25T10:14:29.553Z,39.10
2018-03-25T10:16:57.036Z,39.10
2018-03-25T10:19:24.549Z,39.40
2018-03-25T10:21:52.017Z,39.80
2018-03-25T10:24:19.485Z,36.70
2018-03-25T10:26:46.995Z,37.20
2018-03-25T10:29:15.239Z,38.90
2018-03-25T10:31:42.725Z,38.90
2018-03-25T10:34:10.965Z,38.10
2018-03-25T10:36:38.443Z,38.00
2018-03-25T10:39:05.929Z,38.00
2018-03-25T10:41:33.413Z,38.20
2018-03-25T10:44:00.910Z,38.70
2018-03-25T10:46:28.397Z,37.00
2018-03-25T10:48:56.633Z,38.70
2018-03-25T10:51:24.120Z,38.70
2018-03-25T10:53:52.344Z,37.20
2018-03-25T10:56:19.916Z,37.20
2018-03-25T10:58:47.405Z,38.20
2018-03-25T11:01:15.714Z,37.90
2018-03-25T11:03:43.243Z,37.90
2018-03-25T11:06:11.543Z,37.90
2018-03-25T11:08:39.032Z,38.00
2018-03-25T11:11:06.525Z,36.00
2018-03-25T11:13:33.993Z,35.50
2018-03-25T11:16:02.237Z,36.80
2018-03-25T11:18:29.770Z,36.80
2018-03-25T11:20:57.259Z,35.70
2018-03-25T11:23:24.760Z,35.30
2018-03-25T11:25:52.311Z,34.60
2018-03-25T11:28:19.802Z,35.10
2018-03-25T11:30:47.308Z,38.00
2018-03-25T11:33:15.562Z,36.30
2018-03-25T11:35:43.144Z,36.30
2018-03-25T11:38:11.410Z,35.90
2018-03-25T11:40:38.898Z,35.90
2018-03-25T11:43:06.389Z,36.10
2018-03-25T11:45:33.977Z,35.80
2018-03-25T11:48:01.450Z,34.50
2018-03-25T11:50:29.703Z,34.60
2018-03-25T11:52:57.207Z,34.70
2018-03-25T11:55:24.700Z,35.60
2018-03-25T11:57:52.183Z,35.60
2018-03-25T12:00:19.661Z,34.20
2018-03-25T12:02:47.906Z,34.20
2018-03-25T12:05:15.592Z,34.20
2018-03-25T12:07:43.875Z,35.60
2018-03-25T12:10:12.114Z,36.10
2018-03-25T12:12:39.612Z,36.00
2018-03-25T12:15:07.092Z,35.00
2018-03-25T12:17:34.617Z,33.80
2018-03-25T12:20:02.884Z,33.00
2018-03-25T12:22:31.413Z,33.90
2018-03-25T12:24:58.909Z,33.90
2018-03-25T12:27:26.400Z,30.70
2018-03-25T12:29:53.883Z,32.90
2018-03-25T12:32:21.389Z,29.00
2018-03-25T12:34:48.865Z,31.70
2018-03-25T12:37:16.358Z,33.00
2018-03-25T12:39:43.839Z,32.40
2018-03-25T12:42:11.332Z,32.70
2018-03-25T12:44:39.631Z,32.10
2018-03-25T12:47:07.132Z,32.10
2018-03-25T12:49:34.640Z,33.60
2018-03-25T12:52:02.126Z,33.10
2018-03-25T12:54:29.596Z,32.70
2018-03-25T12:56:57.173Z,35.50
2018-03-25T12:59:24.668Z,33.90
2018-03-25T13:01:52.173Z,34.60
2018-03-25T13:04:19.689Z,34.60
2018-03-25T13:06:47.260Z,36.10
2018-03-25T13:09:14.768Z,34.10
2018-03-25T13:11:43.094Z,34.40
2018-03-25T13:14:10.609Z,34.40
2018-03-25T13:16:39.648Z,35.20
2018-03-25T13:19:07.231Z,35.20
2018-03-25T13:21:34.730Z,34.40
2018-03-25T13:24:03.032Z,35.40
2018-03-25T13:26:30.565Z,35.40
2018-03-25T13:28:58.833Z,34.90
2018-03-25T13:31:27.086Z,35.30
2018-03-25T13:33:54.559Z,35.40
2018-03-25T13:36:22.798Z,35.20
2018-03-25T13:38:50.265Z,35.20
2018-03-25T13:41:17.736Z,34.80
2018-03-25T13:43:45.220Z,36.50
2018-03-25T13:46:13.461Z,35.80
2018-03-25T13:48:40.937Z,35.90
2018-03-25T13:51:09.186Z,36.60
2018-03-25T13:53:36.678Z,36.70
2018-03-25T13:56:04.904Z,37.80
2018-03-25T13:58:32.377Z,37.70
2018-03-25T14:00:59.839Z,36.00
2018-03-25T14:03:27.330Z,36.30
2018-03-25T14:05:55.564Z,36.10
2018-03-25T14:08:23.044Z,36.20
2018-03-25T14:10:50.578Z,36.60
2018-03-25T14:13:18.168Z,37.50
2018-03-25T14:15:46.488Z,38.60
2018-03-25T14:18:13.981Z,38.60
2018-03-25T14:20:41.457Z,39.20
2018-03-25T14:23:08.963Z,38.90
2018-03-25T14:25:36.429Z,39.00
2018-03-25T14:28:03.928Z,39.80
2018-03-25T14:30:32.259Z,39.60
2018-03-25T14:32:59.741Z,39.60
2018-03-25T14:35:27.288Z,39.90
2018-03-25T14:37:54.789Z,39.80
2018-03-25T14:40:23.066Z,39.20
2018-03-25T14:42:51.691Z,39.60
2018-03-25T14:45:19.192Z,39.60
2018-03-25T14:47:47.457Z,39.70
2018-03-25T14:50:14.943Z,39.80
2018-03-25T14:52:43.223Z,40.80
2018-03-25T14:55:11.533Z,40.30
2018-03-25T14:57:39.064Z,40.30
2018-03-25T15:00:06.643Z,39.90
2018-03-25T15:02:34.209Z,39.40
2018-03-25T15:05:01.764Z,40.30
2018-03-25T15:07:29.346Z,41.70
2018-03-25T15:09:56.824Z,41.10
2018-03-25T15:12:24.337Z,40.10
2018-03-25T15:14:51.790Z,41.20
2018-03-25T15:17:19.273Z,41.60
2018-03-25T15:19:46.755Z,41.70
2018-03-25T15:22:14.228Z,41.20
2018-03-25T15:24:42.538Z,41.30
2018-03-25T15:27:10.064Z,42.00
2018-03-25T15:29:38.348Z,41.70
2018-03-25T15:32:05.913Z,41.70
2018-03-25T15:34:34.183Z,41.60
2018-03-25T15:37:02.434Z,41.20
2018-03-25T15:39:30.821Z,42.10
2018-03-25T15:41:59.094Z,42.30
2018-03-25T15:44:27.374Z,42.40
2018-03-25T15:46:55.632Z,42.60
2018-03-25T15:49:23.105Z,42.70
2018-03-25T15:51:50.600Z,42.40
2018-03-25T15:54:18.202Z,42.80
2018-03-25T15:56:45.742Z,43.40
2018-03-25T15:59:13.233Z,43.20
2018-03-25T16:01:40.727Z,43.10
2018-03-25T16:04:08.973Z,43.00
2018-03-25T16:06:36.527Z,43.10
2018-03-25T16:09:04.000Z,43.60
2018-03-25T16:11:32.264Z,44.20
2018-03-25T16:13:59.801Z,44.20
2018-03-25T16:16:27.348Z,43.70
2018-03-25T16:18:54.888Z,44.30
2018-03-25T16:21:22.473Z,44.70
2018-03-25T16:23:50.021Z,44.70
2018-03-25T16:26:17.558Z,44.60
2018-03-25T16:28:45.110Z,45.60
2018-03-25T16:31:13.421Z,45.50
2018-03-25T16:33:40.990Z,45.50
2018-03-25T16:36:08.537Z,45.50
2018-03-25T16:38:37.968Z,45.00
2018-03-25T16:41:05.537Z,46.30
2018-03-25T16:43:33.082Z,47.10
2018-03-25T16:46:00.673Z,46.50
2018-03-25T16:48:29.084Z,46.60
2018-03-25T16:50:56.792Z,47.60
2018-03-25T16:53:24.342Z,47.80
2018-03-25T16:55:51.925Z,47.80
2018-03-25T16:58:19.464Z,48.60
2018-03-25T17:00:47.020Z,49.20
2018-03-25T17:03:14.568Z,49.40
2018-03-25T17:05:42.164Z,50.20
2018-03-25T17:08:09.705Z,50.00
2018-03-25T17:10:37.205Z,50.70
2018-03-25T17:13:05.520Z,51.10
2018-03-25T17:15:33.093Z,51.30
2018-03-25T17:18:00.674Z,50.70
2018-03-25T17:20:28.239Z,51.60
2018-03-25T17:22:56.042Z,52.60
2018-03-25T17:25:23.627Z,52.20
2018-03-25T17:27:51.213Z,53.50
2018-03-25T17:30:18.777Z,53.50
2018-03-25T17:32:46.441Z,53.50
2018-03-25T17:35:13.984Z,53.80
2018-03-25T17:37:41.548Z,54.10
2018-03-25T17:40:09.107Z,55.20
2018-03-25T17:42:36.644Z,55.30
2018-03-25T17:45:04.145Z,56.90
2018-03-25T17:47:31.673Z,56.60
2018-03-25T17:49:59.206Z,56.90
2018-03-25T17:52:26.789Z,58.30
2018-03-25T17:54:54.322Z,56.90
2018-03-25T17:57:21.837Z,57.60
2018-03-25T17:59:49.389Z,58.10
2018-03-25T18:02:16.985Z,58.80
2018-03-25T18:04:44.560Z,59.00
2018-03-25T18:07:12.144Z,58.90
2018-03-25T18:09:39.685Z,60.70
